createdAt,value
2023-02-27T00:01:40.748Z,64.68
2023-02-27T00:04:07.727Z,64.29
2023-02-27T00:06:34.400Z,64.87
2023-02-27T00:09:00.988Z,64.78
2023-02-27T00:11:28.703Z,65.52
2023-02-27T00:13:55.495Z,65.89
2023-02-27T00:16:22.326Z,65.92
2023-02-27T00:18:48.953Z,65.95
2023-02-27T00:21:15.691Z,65.41
2023-02-27T00:23:42.246Z,65.31
2023-02-27T00:26:08.926Z,64.68
2023-02-27T00:28:36.065Z,64.93
2023-02-27T00:31:03.697Z,64.88
2023-02-27T00:33:30.413Z,64.86
2023-02-27T00:35:59.063Z,64.92
2023-02-27T00:38:59.656Z,65.88
2023-02-27T00:41:44.749Z,66.12
2023-02-27T00:44:30.442Z,65.46
2023-02-27T00:47:15.547Z,65.06
2023-02-27T00:50:01.585Z,64.55
2023-02-27T00:52:46.743Z,64.59
2023-02-27T00:55:32.288Z,64.85
2023-02-27T00:58:17.430Z,64.59
2023-02-27T01:01:02.881Z,64.93
2023-02-27T01:03:48.311Z,65.53
2023-02-27T01:06:33.542Z,65.53
2023-02-27T01:09:18.894Z,64.83
2023-02-27T01:12:05.202Z,65.14
2023-02-27T01:14:50.670Z,64.61
2023-02-27T01:17:35.827Z,64.73
2023-02-27T01:20:22.824Z,64.75
2023-02-27T01:23:08.309Z,65.60
2023-02-27T01:25:53.650Z,66.13
2023-02-27T01:28:38.675Z,66.57
2023-02-27T01:31:24.066Z,66.52
2023-02-27T01:34:09.398Z,66.30
2023-02-27T01:36:54.945Z,67.20
2023-02-27T01:39:40.374Z,67.86
2023-02-27T01:42:28.501Z,68.51
2023-02-27T01:45:28.799Z,68.75
2023-02-27T01:48:16.799Z,67.80
2023-02-27T01:51:08.835Z,68.47
2023-02-27T01:53:54.941Z,69.09
2023-02-27T01:56:41.794Z,68.84
2023-02-27T01:59:27.384Z,69.00
2023-02-27T02:02:22.054Z,68.65
2023-02-27T02:05:07.973Z,68.54
2023-02-27T02:07:54.134Z,69.07
2023-02-27T02:10:39.856Z,67.88
2023-02-27T02:13:25.939Z,67.75
2023-02-27T02:16:28.743Z,67.61
2023-02-27T02:19:30.873Z,67.94
2023-02-27T02:22:25.383Z,68.27
2023-02-27T02:25:19.935Z,68.59
2023-02-27T02:28:14.918Z,69.31
2023-02-27T02:31:25.230Z,68.95
2023-02-27T02:34:26.781Z,68.78
2023-02-27T02:37:40.299Z,69.02
2023-02-27T02:40:30.710Z,68.76
2023-02-27T02:43:29.119Z,68.39
2023-02-27T02:46:47.615Z,68.20
2023-02-27T02:49:55.822Z,67.67
2023-02-27T02:53:01.381Z,67.34
2023-02-27T02:56:02.256Z,67.17
2023-02-27T02:58:58.109Z,67.13
2023-02-27T03:01:52.449Z,66.71
2023-02-27T03:04:47.479Z,66.28
2023-02-27T03:07:42.190Z,66.74
2023-02-27T03:10:37.550Z,67.11
2023-02-27T03:13:30.297Z,66.79
2023-02-27T03:16:22.218Z,66.97
2023-02-27T03:19:17.373Z,66.69
2023-02-27T03:22:09.763Z,67.29
2023-02-27T03:24:59.147Z,66.77
2023-02-27T03:27:53.791Z,67.38
2023-02-27T03:30:49.077Z,67.16
2023-02-27T03:33:47.324Z,67.22
2023-02-27T03:36:38.746Z,67.36
2023-02-27T03:39:34.299Z,67.47
2023-02-27T03:42:40.309Z,66.86
2023-02-27T03:45:42.167Z,66.86
2023-02-27T03:48:27.778Z,67.50
2023-02-27T03:51:16.131Z,67.03
2023-02-27T03:54:18.446Z,66.88
2023-02-27T03:57:06.574Z,66.74
2023-02-27T03:59:52.078Z,66.35
2023-02-27T04:02:39.646Z,66.18
2023-02-27T04:05:25.042Z,66.67
2023-02-27T04:08:18.824Z,66.31
2023-02-27T04:11:52.552Z,66.23
2023-02-27T04:14:59.425Z,66.79
2023-02-27T04:18:23.881Z,67.10
2023-02-27T04:21:10.995Z,66.44
2023-02-27T04:23:56.162Z,67.33
2023-02-27T04:26:51.474Z,68.63
2023-02-27T04:29:56.435Z,69.04
2023-02-27T04:33:02.067Z,68.78
2023-02-27T04:35:59.788Z,69.21
2023-02-27T04:38:51.361Z,69.06
2023-02-27T04:41:46.546Z,69.84
2023-02-27T04:44:36.141Z,70.08
2023-02-27T04:47:24.200Z,70.05
2023-02-27T04:50:14.805Z,70.05
2023-02-27T04:53:23.670Z,69.72
2023-02-27T04:56:14.105Z,69.50
2023-02-27T04:59:08.003Z,69.38
2023-02-27T05:02:02.007Z,69.63
2023-02-27T05:04:48.761Z,69.64
2023-02-27T05:07:41.551Z,71.52
2023-02-27T05:10:48.042Z,71.43
2023-02-27T05:13:48.803Z,70.47
2023-02-27T05:16:44.181Z,70.92
2023-02-27T05:19:37.282Z,71.48
2023-02-27T05:22:36.547Z,70.67
2023-02-27T05:25:30.802Z,72.04
2023-02-27T05:28:30.919Z,72.03
2023-02-27T05:31:32.700Z,72.04
2023-02-27T05:34:32.208Z,71.49
2023-02-27T05:37:29.548Z,71.71
2023-02-27T05:40:23.628Z,72.29
2023-02-27T05:43:22.871Z,71.82
2023-02-27T05:46:17.745Z,71.16
2023-02-27T05:49:10.399Z,71.36
2023-02-27T05:51:59.824Z,70.41
2023-02-27T05:55:13.804Z,71.14
2023-02-27T05:58:30.173Z,70.51
2023-02-27T06:01:15.611Z,69.46
2023-02-27T06:04:01.011Z,71.23
2023-02-27T06:06:47.612Z,70.70
2023-02-27T06:09:33.737Z,69.64
2023-02-27T06:12:19.173Z,69.83
2023-02-27T06:15:04.858Z,69.43
2023-02-27T06:17:50.306Z,70.44
2023-02-27T06:20:35.887Z,70.09
2023-02-27T06:23:21.945Z,69.85
2023-02-27T06:26:07.303Z,68.74
2023-02-27T06:28:52.656Z,69.49
2023-02-27T06:31:38.105Z,69.84
2023-02-27T06:34:23.446Z,69.68
2023-02-27T06:37:08.849Z,69.21
2023-02-27T06:39:54.310Z,68.57
2023-02-27T06:42:44.308Z,68.50
2023-02-27T06:45:29.444Z,68.63
2023-02-27T06:48:14.997Z,69.33
2023-02-27T06:51:00.052Z,69.02
2023-02-27T06:53:45.321Z,68.57
2023-02-27T06:56:30.752Z,68.91
2023-02-27T06:59:16.169Z,68.55
2023-02-27T07:02:01.728Z,68.18
2023-02-27T07:04:46.910Z,68.49
2023-02-27T07:07:37.575Z,67.82
2023-02-27T07:10:23.438Z,67.03
2023-02-27T07:13:08.650Z,68.02
2023-02-27T07:15:54.422Z,69.08
2023-02-27T07:18:39.367Z,69.74
2023-02-27T07:21:25.642Z,71.15
2023-02-27T07:24:11.481Z,71.59
2023-02-27T07:26:57.019Z,72.12
2023-02-27T07:29:42.268Z,73.67
2023-02-27T07:32:27.960Z,73.25
2023-02-27T07:35:13.585Z,70.86
2023-02-27T07:37:58.907Z,71.41
2023-02-27T07:40:44.801Z,71.34
2023-02-27T07:43:30.462Z,70.20
2023-02-27T07:46:15.918Z,69.82
2023-02-27T07:49:01.324Z,69.97
2023-02-27T07:51:46.852Z,69.59
2023-02-27T07:54:34.498Z,68.64
2023-02-27T07:57:21.046Z,67.30
2023-02-27T08:00:08.014Z,68.35
2023-02-27T08:02:57.412Z,68.19
2023-02-27T08:05:42.745Z,68.44
2023-02-27T08:08:28.218Z,68.56
2023-02-27T08:11:13.699Z,68.50
2023-02-27T08:14:01.056Z,68.68
2023-02-27T08:16:46.585Z,68.13
2023-02-27T08:19:31.988Z,66.97
2023-02-27T08:22:17.841Z,66.86
2023-02-27T08:25:04.615Z,66.40
2023-02-27T08:27:50.412Z,64.92
2023-02-27T08:30:35.933Z,64.73
2023-02-27T08:33:22.546Z,64.97
2023-02-27T08:36:07.994Z,63.22
2023-02-27T08:38:52.992Z,63.10
2023-02-27T08:41:38.213Z,63.81
2023-02-27T08:44:23.527Z,62.69
2023-02-27T08:47:09.175Z,61.51
2023-02-27T08:49:54.676Z,63.74
2023-02-27T08:52:40.027Z,61.57
2023-02-27T08:55:25.481Z,63.70
2023-02-27T08:58:11.007Z,62.24
2023-02-27T09:00:56.130Z,62.20
2023-02-27T09:03:41.665Z,61.33
2023-02-27T09:06:27.790Z,61.21
2023-02-27T09:09:13.586Z,62.10
2023-02-27T09:11:58.719Z,62.77
2023-02-27T09:14:43.834Z,60.26
2023-02-27T09:17:29.151Z,60.82
2023-02-27T09:20:14.526Z,60.36
2023-02-27T09:23:00.157Z,60.85
2023-02-27T09:25:47.445Z,60.94
2023-02-27T09:28:32.961Z,61.01
2023-02-27T09:31:18.172Z,63.68
2023-02-27T09:34:03.687Z,62.50
2023-02-27T09:36:48.893Z,61.68
2023-02-27T09:39:34.434Z,59.88
2023-02-27T09:42:25.508Z,60.48
2023-02-27T09:45:27.545Z,61.77
2023-02-27T09:48:24.013Z,60.23
2023-02-27T09:51:12.148Z,58.53
2023-02-27T09:54:01.601Z,57.89
2023-02-27T09:56:52.678Z,58.82
2023-02-27T09:59:52.698Z,59.60
2023-02-27T10:02:55.696Z,59.05
2023-02-27T10:05:58.937Z,57.78
2023-02-27T10:08:44.361Z,59.94
2023-02-27T10:11:44.406Z,58.24
2023-02-27T10:14:42.169Z,60.03
2023-02-27T10:17:53.057Z,61.82
2023-02-27T10:20:43.219Z,60.22
2023-02-27T10:23:46.175Z,61.05
2023-02-27T10:26:38.471Z,62.29
2023-02-27T10:29:32.887Z,59.58
2023-02-27T10:32:34.797Z,58.70
2023-02-27T10:35:30.774Z,60.67
2023-02-27T10:38:31.048Z,58.84
2023-02-27T10:41:19.095Z,58.41
2023-02-27T10:44:04.821Z,59.01
2023-02-27T10:46:52.016Z,61.88
2023-02-27T10:49:38.551Z,58.34
2023-02-27T10:52:23.947Z,59.34
2023-02-27T10:55:24.376Z,59.31
2023-02-27T10:58:19.560Z,57.47
2023-02-27T11:01:08.142Z,59.16
2023-02-27T11:03:56.387Z,58.30
2023-02-27T11:06:42.576Z,57.78
2023-02-27T11:09:30.848Z,58.30
2023-02-27T11:12:33.967Z,56.85
2023-02-27T11:15:26.363Z,57.86
2023-02-27T11:18:29.516Z,55.98
2023-02-27T11:21:29.346Z,55.18
2023-02-27T11:24:20.643Z,57.52
2023-02-27T11:27:27.694Z,55.83
2023-02-27T11:30:28.775Z,55.22
2023-02-27T11:33:19.886Z,55.92
2023-02-27T11:36:06.288Z,56.65
2023-02-27T11:38:54.162Z,58.46
2023-02-27T11:41:40.509Z,58.47
2023-02-27T11:44:34.688Z,58.63
2023-02-27T11:47:38.651Z,60.12
2023-02-27T11:50:51.269Z,59.77
2023-02-27T11:54:06.781Z,58.88
2023-02-27T11:56:56.649Z,60.01
2023-02-27T11:59:42.073Z,59.56
2023-02-27T12:02:27.251Z,59.21
2023-02-27T12:05:15.475Z,59.55
2023-02-27T12:08:13.993Z,59.83
2023-02-27T12:11:14.121Z,59.82
2023-02-27T12:14:06.223Z,61.31
2023-02-27T12:16:57.772Z,60.94
2023-02-27T12:20:09.719Z,60.94
2023-02-27T12:22:55.732Z,61.55
2023-02-27T12:25:47.785Z,60.18
2023-02-27T12:29:05.126Z,61.36
2023-02-27T12:31:54.263Z,59.86
2023-02-27T12:34:49.210Z,59.70
2023-02-27T12:37:36.366Z,59.83
2023-02-27T12:40:30.545Z,61.32
2023-02-27T12:43:22.103Z,61.04
2023-02-27T12:46:32.472Z,61.75
2023-02-27T12:49:39.613Z,61.37
2023-02-27T12:52:34.063Z,61.74
2023-02-27T12:55:35.219Z,60.03
2023-02-27T12:58:55.590Z,60.14
2023-02-27T13:01:50.077Z,59.67
2023-02-27T13:04:49.715Z,58.67
2023-02-27T13:07:43.247Z,57.60
2023-02-27T13:10:36.479Z,58.45
2023-02-27T13:13:43.649Z,55.32
2023-02-27T13:16:37.234Z,59.41
2023-02-27T13:20:24.138Z,58.89
2023-02-27T13:23:19.795Z,59.05
2023-02-27T13:26:33.197Z,57.45
2023-02-27T13:29:22.569Z,57.80
2023-02-27T13:32:32.743Z,59.05
2023-02-27T13:36:14.485Z,56.13
2023-02-27T13:39:00.090Z,58.71
2023-02-27T13:41:45.532Z,58.43
2023-02-27T13:44:39.705Z,56.53
2023-02-27T13:47:30.895Z,58.38
2023-02-27T13:50:18.741Z,60.14
2023-02-27T13:53:10.523Z,59.28
2023-02-27T13:56:23.264Z,60.31
2023-02-27T13:59:39.094Z,59.83
2023-02-27T14:02:57.944Z,59.08
2023-02-27T14:05:47.181Z,59.85
2023-02-27T14:08:49.905Z,58.96
2023-02-27T14:11:36.792Z,58.96
2023-02-27T14:14:44.773Z,59.60
2023-02-27T14:17:36.461Z,60.49
2023-02-27T14:20:21.828Z,59.43
2023-02-27T14:23:36.729Z,60.07
2023-02-27T14:26:22.079Z,60.14
2023-02-27T14:29:17.073Z,62.46
2023-02-27T14:32:05.632Z,62.82
2023-02-27T14:34:53.511Z,61.57
2023-02-27T14:37:39.700Z,60.92
2023-02-27T14:40:33.033Z,61.32
2023-02-27T14:43:51.867Z,61.12
2023-02-27T14:46:39.360Z,61.29
2023-02-27T14:49:33.937Z,61.63
2023-02-27T14:52:23.392Z,61.59
2023-02-27T14:55:27.877Z,61.64
2023-02-27T14:58:13.198Z,60.64
2023-02-27T15:01:08.650Z,61.58
2023-02-27T15:03:57.941Z,62.98
2023-02-27T15:06:46.469Z,61.59
2023-02-27T15:09:41.082Z,61.74
2023-02-27T15:12:27.663Z,61.44
2023-02-27T15:15:20.938Z,62.08
2023-02-27T15:18:13.621Z,61.38
2023-02-27T15:20:58.928Z,61.88
2023-02-27T15:23:44.772Z,64.08
2023-02-27T15:29:53.430Z,62.83
2023-02-27T15:32:42.595Z,62.06
2023-02-27T15:35:42.120Z,63.07
2023-02-27T15:38:33.396Z,62.53
2023-02-27T15:41:19.875Z,64.43
2023-02-27T15:44:05.398Z,64.79
2023-02-27T15:46:52.747Z,63.59
2023-02-27T15:49:38.674Z,63.86
2023-02-27T15:52:27.243Z,63.96
2023-02-27T15:55:15.723Z,64.22
2023-02-27T15:58:03.531Z,64.42
2023-02-27T16:00:59.265Z,63.35
2023-02-27T16:03:51.710Z,64.90
2023-02-27T16:06:46.303Z,64.59
2023-02-27T16:09:35.022Z,64.43
2023-02-27T16:12:35.171Z,63.68
2023-02-27T16:15:29.160Z,64.65
2023-02-27T16:18:14.568Z,65.19
2023-02-27T16:21:13.194Z,64.83
2023-02-27T16:24:18.102Z,64.46
2023-02-27T16:27:03.900Z,64.50
2023-02-27T16:29:50.169Z,65.00
2023-02-27T16:32:40.658Z,65.09
2023-02-27T16:35:25.962Z,66.11
2023-02-27T16:38:11.396Z,65.59
2023-02-27T16:40:56.789Z,65.45
2023-02-27T16:43:44.551Z,64.80
2023-02-27T16:46:30.190Z,66.15
2023-02-27T16:49:24.682Z,66.69
2023-02-27T16:52:11.722Z,66.31
2023-02-27T16:54:57.247Z,66.28
2023-02-27T16:57:42.399Z,67.90
2023-02-27T17:00:27.988Z,67.10
2023-02-27T17:03:13.335Z,67.92
2023-02-27T17:05:59.290Z,68.30
2023-02-27T17:08:45.047Z,68.40
2023-02-27T17:11:30.478Z,68.18
2023-02-27T17:14:15.989Z,69.16
2023-02-27T17:17:02.020Z,68.87
2023-02-27T17:19:47.884Z,69.13
2023-02-27T17:22:40.420Z,70.20
2023-02-27T17:25:25.872Z,70.24
2023-02-27T17:28:11.615Z,70.65
2023-02-27T17:30:57.106Z,71.42
2023-02-27T17:33:42.764Z,71.67
2023-02-27T17:36:28.208Z,73.04
2023-02-27T17:39:14.853Z,73.77
2023-02-27T17:41:59.943Z,73.79
2023-02-27T17:44:46.775Z,73.84
2023-02-27T17:47:33.651Z,73.91
2023-02-27T17:50:19.296Z,74.55
2023-02-27T17:53:04.734Z,74.89
2023-02-27T17:55:50.383Z,74.36
2023-02-27T17:58:36.221Z,74.57
2023-02-27T18:01:23.625Z,74.05
2023-02-27T18:04:08.999Z,73.90
2023-02-27T18:06:54.565Z,74.06
2023-02-27T18:09:39.797Z,74.73
2023-02-27T18:12:25.015Z,74.85
2023-02-27T18:15:11.119Z,74.72
2023-02-27T18:17:56.624Z,75.27
2023-02-27T18:20:42.441Z,75.89
2023-02-27T18:23:28.008Z,75.90
2023-02-27T18:26:32.916Z,76.00
2023-02-27T18:29:18.484Z,76.77
2023-02-27T18:32:03.891Z,76.32
2023-02-27T18:34:49.516Z,75.59
2023-02-27T18:37:35.151Z,75.30
2023-02-27T18:40:21.351Z,76.93
2023-02-27T18:43:06.741Z,77.92
2023-02-27T18:45:52.768Z,78.10
2023-02-27T18:48:39.465Z,78.62
2023-02-27T18:51:25.468Z,78.69
2023-02-27T18:54:13.626Z,78.55
2023-02-27T18:56:59.018Z,79.44
2023-02-27T18:59:44.727Z,79.13
2023-02-27T19:02:30.024Z,78.61
2023-02-27T19:05:15.139Z,77.68
2023-02-27T19:08:00.558Z,77.85
2023-02-27T19:10:46.080Z,77.67
2023-02-27T19:13:31.433Z,77.51
2023-02-27T19:16:16.894Z,77.96
2023-02-27T19:19:03.426Z,77.24
2023-02-27T19:21:48.632Z,77.38
2023-02-27T19:24:34.338Z,77.53
2023-02-27T19:27:19.603Z,77.77
2023-02-27T19:30:05.282Z,76.90
2023-02-27T19:32:51.396Z,77.47
2023-02-27T19:35:38.718Z,77.46
2023-02-27T19:38:23.804Z,78.18
2023-02-27T19:41:12.057Z,77.49
2023-02-27T19:43:57.744Z,76.98
2023-02-27T19:46:43.649Z,77.14
2023-02-27T19:49:29.102Z,77.51
2023-02-27T19:52:14.581Z,77.08
2023-02-27T19:54:59.807Z,76.21
2023-02-27T19:57:45.602Z,75.85
2023-02-27T20:00:31.035Z,76.13
2023-02-27T20:03:16.934Z,76.14
2023-02-27T20:06:03.250Z,75.52
2023-02-27T20:08:49.065Z,75.79
2023-02-27T20:11:34.964Z,75.07
2023-02-27T20:14:20.588Z,75.28
2023-02-27T20:17:06.061Z,75.03
2023-02-27T20:19:51.467Z,75.25
2023-02-27T20:22:37.051Z,75.37
2023-02-27T20:25:22.474Z,75.29
2023-02-27T20:28:07.649Z,75.75
2023-02-27T20:30:53.169Z,75.26
2023-02-27T20:33:39.570Z,74.97
2023-02-27T20:36:25.774Z,74.38
2023-02-27T20:39:11.879Z,74.99
2023-02-27T20:41:57.472Z,74.80
2023-02-27T20:44:43.074Z,74.00
2023-02-27T20:47:28.359Z,74.73
2023-02-27T20:50:13.589Z,73.93
2023-02-27T20:52:58.809Z,74.71
2023-02-27T20:55:49.166Z,73.83
2023-02-27T20:58:35.538Z,74.44
2023-02-27T21:01:21.410Z,73.65
2023-02-27T21:04:07.010Z,73.46
2023-02-27T21:06:52.902Z,73.93
2023-02-27T21:09:39.001Z,73.63
2023-02-27T21:12:24.357Z,73.72
2023-02-27T21:15:10.410Z,73.66
2023-02-27T21:17:55.571Z,73.63
2023-02-27T21:20:42.393Z,74.58
2023-02-27T21:23:27.982Z,73.99
2023-02-27T21:26:18.035Z,73.78
2023-02-27T21:29:13.523Z,74.38
2023-02-27T21:31:58.653Z,74.85
2023-02-27T21:34:44.276Z,74.76
2023-02-27T21:37:29.666Z,74.06
2023-02-27T21:40:16.128Z,74.09
2023-02-27T21:43:01.566Z,74.18
2023-02-27T21:45:47.179Z,73.51
2023-02-27T21:48:33.054Z,74.01
2023-02-27T21:51:33.024Z,74.25
2023-02-27T21:54:24.250Z,74.37
2023-02-27T21:57:09.498Z,74.14
2023-02-27T21:59:55.117Z,74.74
2023-02-27T22:02:40.606Z,76.21
2023-02-27T22:05:26.354Z,75.80
2023-02-27T22:08:11.586Z,75.08
2023-02-27T22:10:58.214Z,74.96
2023-02-27T22:13:43.762Z,74.92
2023-02-27T22:16:29.314Z,75.23
2023-02-27T22:19:16.514Z,75.26
2023-02-27T22:22:02.060Z,75.95
2023-02-27T22:24:47.476Z,75.70
2023-02-27T22:27:33.012Z,75.86
2023-02-27T22:30:18.340Z,75.45
2023-02-27T22:33:03.939Z,75.03
2023-02-27T22:35:49.068Z,75.09
2023-02-27T22:38:34.766Z,76.25
2023-02-27T22:41:23.281Z,75.65
2023-02-27T22:44:12.394Z,74.51
2023-02-27T22:46:57.763Z,73.72
2023-02-27T22:49:43.541Z,73.48
2023-02-27T22:52:29.063Z,74.01
2023-02-27T22:55:14.529Z,73.90
2023-02-27T22:57:59.833Z,73.85
2023-02-27T23:00:45.170Z,74.23
2023-02-27T23:03:30.801Z,73.86
2023-02-27T23:06:19.677Z,74.02
2023-02-27T23:09:07.876Z,73.93
2023-02-27T23:11:54.436Z,73.33
2023-02-27T23:14:39.950Z,73.43
2023-02-27T23:17:25.403Z,73.78
2023-02-27T23:20:11.548Z,74.04
2023-02-27T23:22:56.845Z,72.81
2023-02-27T23:25:42.310Z,73.61
2023-02-27T23:28:31.272Z,73.14
2023-02-27T23:31:16.523Z,73.87
2023-02-27T23:34:01.916Z,73.49
2023-02-27T23:36:47.108Z,73.32
2023-02-27T23:39:32.544Z,73.46
2023-02-27T23:42:17.667Z,73.86
2023-02-27T23:45:03.524Z,73.07
2023-02-27T23:47:57.291Z,73.33
2023-02-27T23:50:44.905Z,73.29
2023-02-27T23:53:30.970Z,72.29
2023-02-27T23:56:22.968Z,73.03
2023-02-27T23:59:08.029Z,72.90
